Time;durP1;ratioP1;P1;durP2;ratioP2;P2;SDS_P1;SDS_P2;PMS_P1;PMS_P2;Temp;Humidity;BMP_temperature;BMP_pressure;BME280_temperature;BME280_humidity;BME280_pressure;Samples;Min_cycle;Max_cycle;Signal;HPM_P1;HPM_P2
2022/06/06 00:00:48;;;;;;;6.70;4.07;;;;;;;22.86;50.27;100278.00;5081985;28;20072;-72
2022/06/06 00:03:15;;;;;;;5.07;4.15;;;;;;;22.77;51.21;100276.75;5082816;28;20058;-72
2022/06/06 00:05:43;;;;;;;5.00;4.50;;;;;;;22.62;51.30;100286.63;5080549;28;20032;-72
2022/06/06 00:08:09;;;;;;;4.60;3.85;;;;;;;22.60;52.21;100285.84;5083229;28;20398;-72
2022/06/06 00:10:34;;;;;;;5.00;4.40;;;;;;;22.59;51.28;100286.81;5081895;28;20421;-72
2022/06/06 00:13:00;;;;;;;4.70;4.03;;;;;;;22.56;51.67;100286.09;5081465;28;20040;-72
2022/06/06 00:15:25;;;;;;;4.85;3.97;;;;;;;22.54;51.97;100294.28;5083023;28;20036;-72
2022/06/06 00:17:50;;;;;;;4.93;3.95;;;;;;;22.50;51.89;100292.72;5080421;28;20040;-72
2022/06/06 00:20:16;;;;;;;5.88;4.40;;;;;;;22.48;51.97;100305.41;5083661;28;20071;-72
2022/06/06 00:22:42;;;;;;;4.97;4.00;;;;;;;22.48;51.58;100300.03;5080018;28;20097;-72
2022/06/06 00:25:08;;;;;;;6.10;4.72;;;;;;;22.48;51.54;100291.97;5079939;28;20028;-72
2022/06/06 00:27:33;;;;;;;5.97;4.22;;;;;;;22.47;51.27;100304.53;5081806;28;20105;-72
2022/06/06 00:29:59;;;;;;;4.45;3.80;;;;;;;22.49;51.00;100302.63;5082429;28;20486;-72
2022/06/06 00:35:08;;;;;;;5.22;3.67;;;;;;;22.57;50.57;100295.91;5080673;28;20033;-72
2022/06/06 00:37:37;;;;;;;4.93;4.15;;;;;;;22.58;50.31;100303.88;5079693;28;20032;-72
2022/06/06 00:40:04;;;;;;;4.95;3.78;;;;;;;22.61;50.86;100306.41;5083002;28;20036;-72
2022/06/06 00:42:33;;;;;;;5.18;4.05;;;;;;;22.60;51.08;100307.34;5080127;28;20032;-72
2022/06/06 00:45:20;;;;;;;6.47;3.97;;;;;;;22.56;52.29;100310.31;5081354;28;20043;-72
2022/06/06 00:47:51;;;;;;;4.95;4.18;;;;;;;22.60;51.61;100298.41;5078990;28;20058;-72
2022/06/06 00:50:21;;;;;;;5.35;4.40;;;;;;;22.52;53.08;100298.88;5080461;28;20063;-72
2022/06/06 00:52:49;;;;;;;6.35;4.18;;;;;;;22.48;53.16;100300.91;5075875;28;20517;-72
2022/06/06 00:55:18;;;;;;;5.82;4.53;;;;;;;22.45;53.89;100298.38;5078159;28;20055;-72
2022/06/06 00:57:52;;;;;;;7.32;4.80;;;;;;;22.38;55.63;100294.31;5080695;28;20083;-72
2022/06/06 01:00:19;;;;;;;7.57;4.70;;;;;;;22.28;55.90;100298.50;5075961;28;20399;-72
2022/06/06 01:02:48;;;;;;;5.75;5.13;;;;;;;22.28;55.97;100293.13;5081523;28;20473;-72
2022/06/06 01:05:15;;;;;;;6.88;5.20;;;;;;;22.28;56.85;100294.00;5081745;28;20498;-72
2022/06/06 01:07:41;;;;;;;7.15;5.20;;;;;;;22.25;57.23;100296.00;5079971;28;20036;-72
2022/06/06 01:10:07;;;;;;;6.47;5.45;;;;;;;22.18;59.46;100290.06;5082654;28;20032;-72
2022/06/06 01:12:33;;;;;;;7.35;5.45;;;;;;;22.14;59.33;100296.59;5079146;28;20081;-72
2022/06/06 01:15:04;;;;;;;7.47;5.13;;;;;;;22.11;59.81;100294.06;5082055;28;20036;-72
2022/06/06 01:17:55;;;;;;;6.80;4.90;;;;;;;22.06;61.29;100288.09;5081752;28;20036;-72
2022/06/06 01:20:43;;;;;;;6.93;5.00;;;;;;;21.98;63.02;100293.94;5080794;28;20043;-72
2022/06/06 01:23:48;;;;;;;8.35;4.75;;;;;;;21.79;64.02;100302.16;5078257;28;20040;-72
2022/06/06 01:26:25;;;;;;;7.22;4.78;;;;;;;21.63;64.58;100295.91;5076935;28;20037;-72
2022/06/06 01:29:26;;;;;;;4.43;4.00;;;;;;;21.44;66.35;100291.56;5079762;28;20036;-72
2022/06/06 01:31:59;;;;;;;6.93;4.88;;;;;;;21.35;67.28;100296.53;5075062;28;20044;-72
2022/06/06 01:34:30;;;;;;;6.07;4.53;;;;;;;21.32;66.98;100294.88;5080636;28;20506;-72
2022/06/06 01:36:57;;;;;;;6.10;4.88;;;;;;;21.26;66.90;100297.03;5082653;28;20036;-72
2022/06/06 01:39:25;;;;;;;7.00;4.63;;;;;;;21.23;67.79;100300.75;5079420;28;20032;-72
2022/06/06 01:42:18;;;;;;;7.30;4.03;;;;;;;21.14;68.35;100301.22;5080609;28;20024;-72
2022/06/06 01:44:52;;;;;;;5.60;3.88;;;;;;;21.16;68.02;100310.94;5079338;28;20410;-72
2022/06/06 01:47:43;;;;;;;5.13;3.92;;;;;;;21.14;68.41;100320.03;5078988;28;20522;-72
2022/06/06 01:50:11;;;;;;;6.55;4.55;;;;;;;21.07;68.25;100308.75;5078996;28;20037;-72
2022/06/06 01:52:57;;;;;;;5.75;4.35;;;;;;;21.04;68.99;100305.34;5084879;28;20127;-72
2022/06/06 01:55:25;;;;;;;6.35;4.43;;;;;;;20.99;68.89;100303.81;5077314;28;20082;-72
2022/06/06 01:57:53;;;;;;;5.35;4.18;;;;;;;20.98;69.17;100311.91;5084598;28;20047;-72
2022/06/06 02:00:20;;;;;;;6.82;4.30;;;;;;;20.97;69.23;100316.41;5085586;28;20725;-72
2022/06/06 02:02:45;;;;;;;7.22;4.25;;;;;;;20.93;69.66;100316.66;5082488;28;20673;-72
2022/06/06 02:05:13;;;;;;;5.30;4.18;;;;;;;20.90;69.83;100320.38;5086301;28;20036;-72
2022/06/06 02:07:39;;;;;;;5.05;4.00;;;;;;;20.87;70.01;100314.31;5083689;28;20055;-71
2022/06/06 02:10:09;;;;;;;6.95;4.20;;;;;;;20.78;70.67;100315.66;5084182;28;20535;-71
2022/06/06 02:12:39;;;;;;;6.65;4.07;;;;;;;20.74;71.18;100311.38;5085067;28;20073;-72
2022/06/06 02:15:06;;;;;;;5.80;3.83;;;;;;;20.65;71.86;100315.41;5061596;28;20037;-72
2022/06/06 02:17:32;;;;;;;7.10;4.20;;;;;;;20.57;72.19;100321.19;5083454;28;20067;-72
2022/06/06 02:19:57;;;;;;;5.35;4.20;;;;;;;20.43;73.02;100320.97;5084396;28;20059;-72
2022/06/06 02:22:22;;;;;;;6.43;4.55;;;;;;;20.43;73.31;100323.63;5084175;28;20043;-72
2022/06/06 02:24:48;;;;;;;11.40;4.47;;;;;;;20.40;73.35;100334.53;5082268;28;20082;-71
2022/06/06 02:27:13;;;;;;;5.32;4.30;;;;;;;20.36;74.67;100343.69;5082503;28;20040;-72
2022/06/06 02:29:39;;;;;;;4.82;4.00;;;;;;;20.30;74.63;100343.97;5078516;28;20037;-72
2022/06/06 02:32:05;;;;;;;7.15;4.32;;;;;;;20.30;75.57;100346.63;5084691;28;20116;-72
2022/06/06 02:34:30;;;;;;;6.05;4.97;;;;;;;20.16;76.79;100351.81;5083800;28;20044;-72
2022/06/06 02:36:56;;;;;;;5.65;4.43;;;;;;;20.13;77.48;100347.47;5082677;28;20456;-72
2022/06/06 02:39:21;;;;;;;6.45;4.38;;;;;;;20.00;78.31;100352.56;5084261;28;20093;-72
2022/06/06 02:41:46;;;;;;;5.63;4.25;;;;;;;19.93;79.25;100367.19;5080779;28;20732;-72
2022/06/06 02:44:11;;;;;;;6.75;5.10;;;;;;;19.82;80.71;100365.00;5085604;28;20101;-72
2022/06/06 02:46:37;;;;;;;6.60;4.70;;;;;;;19.77;81.44;100366.16;5082506;28;20040;-72
2022/06/06 02:49:02;;;;;;;5.22;4.63;;;;;;;19.69;82.09;100369.19;5084350;28;20077;-72
2022/06/06 02:51:28;;;;;;;7.93;5.32;;;;;;;19.58;83.63;100376.84;5082958;28;20406;-72
2022/06/06 02:53:53;;;;;;;8.80;5.50;;;;;;;19.48;83.80;100379.91;5082558;28;20095;-71
2022/06/06 02:56:18;;;;;;;7.78;5.22;;;;;;;19.41;84.50;100382.94;5084456;28;20032;-72
2022/06/06 02:58:44;;;;;;;8.02;5.05;;;;;;;19.37;84.70;100390.25;5081778;28;20040;-72
2022/06/06 03:01:10;;;;;;;6.35;4.32;;;;;;;19.32;85.65;100396.75;5070717;28;20135;-72
2022/06/06 03:03:37;;;;;;;6.70;4.78;;;;;;;19.31;85.41;100405.69;5082643;28;20042;-72
2022/06/06 03:06:05;;;;;;;6.82;4.70;;;;;;;19.27;85.91;100400.47;5083765;28;20024;-72
2022/06/06 03:09:08;;;;;;;7.13;4.85;;;;;;;19.26;86.50;100403.25;5084086;28;20032;-72
2022/06/06 03:12:04;;;;;;;7.47;4.70;;;;;;;19.25;86.94;100406.84;5073152;28;20053;-72
2022/06/06 03:15:06;;;;;;;7.00;4.90;;;;;;;19.25;87.06;100414.88;5080480;28;20040;-72
2022/06/06 03:20:46;;;;;;;4.85;4.28;;;;;;;19.21;88.29;100421.31;5080701;28;20033;-72
2022/06/06 03:23:36;;;;;;;6.50;4.53;;;;;;;19.29;87.22;100424.50;5081004;28;20128;-72
2022/06/06 03:26:12;;;;;;;7.00;4.68;;;;;;;19.37;86.79;100418.81;5084071;28;20398;-72
2022/06/06 03:28:44;;;;;;;6.85;4.43;;;;;;;19.37;87.06;100425.03;5082807;28;20040;-72
2022/06/06 03:31:19;;;;;;;5.78;4.45;;;;;;;19.39;87.42;100420.50;5081063;28;20606;-72
2022/06/06 03:34:13;;;;;;;8.80;4.40;;;;;;;19.42;87.26;100415.00;5079458;28;20711;-71
2022/06/06 03:36:46;;;;;;;6.10;4.25;;;;;;;19.43;86.13;100421.22;5080574;28;20045;-72
2022/06/06 03:39:45;;;;;;;6.65;4.18;;;;;;;19.42;87.57;100430.19;5081068;28;20413;-72
2022/06/06 03:42:36;;;;;;;6.45;4.43;;;;;;;19.41;86.27;100423.09;5078371;28;20128;-72
2022/06/06 03:45:13;;;;;;;5.68;4.78;;;;;;;19.41;85.62;100415.94;5079302;28;20028;-71
2022/06/06 03:48:11;;;;;;;7.22;5.72;;;;;;;19.43;86.18;100416.72;5081059;28;20487;-71
2022/06/06 03:50:47;;;;;;;7.75;4.70;;;;;;;19.42;85.90;100414.13;5064415;28;20059;-72
2022/06/06 03:53:20;;;;;;;7.13;5.60;;;;;;;19.42;86.21;100415.00;5081205;28;20521;-72
2022/06/06 03:56:04;;;;;;;9.02;5.90;;;;;;;19.45;85.88;100425.56;5078890;28;20035;-71
2022/06/06 03:58:31;;;;;;;5.80;4.63;;;;;;;19.47;85.64;100421.03;5083874;28;20044;-72
2022/06/06 04:01:00;;;;;;;6.95;5.43;;;;;;;19.46;85.61;100421.94;5080554;28;20037;-72
2022/06/06 04:03:26;;;;;;;7.82;5.32;;;;;;;19.45;85.84;100424.69;5076543;28;20063;-72
2022/06/06 04:05:52;;;;;;;6.63;4.80;;;;;;;19.40;86.55;100430.25;5081921;28;20035;-72
2022/06/06 04:08:17;;;;;;;7.07;4.88;;;;;;;19.44;86.23;100430.97;5083261;28;20054;-72
2022/06/06 04:11:09;;;;;;;6.55;5.22;;;;;;;19.45;85.93;100430.06;5080159;28;20028;-72
2022/06/06 04:14:01;;;;;;;5.87;4.30;;;;;;;19.47;84.83;100431.72;5079372;28;20499;-72
2022/06/06 04:16:41;;;;;;;7.80;4.43;;;;;;;19.50;84.93;100428.03;5080496;28;20042;-72
2022/06/06 04:19:18;;;;;;;7.43;4.20;;;;;;;19.53;84.87;100437.75;5083215;28;20036;-72
2022/06/06 04:22:08;;;;;;;6.95;4.32;;;;;;;19.56;84.45;100442.94;5078247;28;20040;-72
2022/06/06 04:24:59;;;;;;;6.05;4.50;;;;;;;19.55;84.15;100442.09;5075494;28;20445;-71
2022/06/06 04:27:37;;;;;;;6.05;4.13;;;;;;;19.56;84.15;100445.63;5079165;28;20032;-72
2022/06/06 04:30:15;;;;;;;6.70;4.25;;;;;;;19.62;83.30;100438.22;5080002;28;20048;-72
2022/06/06 04:33:18;;;;;;;4.95;3.95;;;;;;;19.62;83.33;100443.56;5080524;28;20085;-72
2022/06/06 04:35:58;;;;;;;6.15;3.30;;;;;;;19.60;82.81;100437.41;5080342;28;20036;-72
2022/06/06 04:38:31;;;;;;;4.57;3.60;;;;;;;19.60;82.20;100450.78;5080569;28;20082;-72
2022/06/06 04:41:14;;;;;;;3.67;3.13;;;;;;;19.62;82.14;100446.25;5076417;28;20037;-72
2022/06/06 04:43:58;;;;;;;6.07;3.67;;;;;;;19.63;82.18;100447.09;5079569;28;20542;-72
2022/06/06 04:46:43;;;;;;;4.60;3.40;;;;;;;19.70;81.86;100451.25;5080549;28;20036;-72
2022/06/06 04:49:10;;;;;;;5.47;3.80;;;;;;;19.66;82.11;100444.28;5080238;28;20032;-72
2022/06/06 04:51:36;;;;;;;4.97;3.40;;;;;;;19.73;81.80;100451.13;5079398;28;20082;-72
2022/06/06 04:54:03;;;;;;;4.68;3.30;;;;;;;19.77;80.71;100439.34;5079569;28;20072;-72
2022/06/06 04:56:28;;;;;;;4.20;2.88;;;;;;;19.72;80.24;100456.56;5082354;28;20122;-71
2022/06/06 04:58:58;;;;;;;3.90;3.03;;;;;;;19.64;80.28;100463.06;5080618;28;20126;-72
2022/06/06 05:01:24;;;;;;;4.80;3.30;;;;;;;19.59;80.70;100454.38;5080078;28;20406;-72
2022/06/06 05:03:50;;;;;;;4.25;3.10;;;;;;;19.60;80.88;100453.47;5082798;28;20044;-72
2022/06/06 05:06:27;;;;;;;4.82;2.78;;;;;;;19.67;80.02;100467.47;5079642;28;20082;-72
2022/06/06 05:09:16;;;;;;;4.25;2.90;;;;;;;19.65;80.56;100463.97;5080739;28;20043;-72
2022/06/06 05:12:12;;;;;;;4.10;3.00;;;;;;;19.62;79.16;100464.09;5078859;28;20036;-72
2022/06/06 05:14:51;;;;;;;5.03;3.13;;;;;;;19.56;79.33;100464.38;5061160;28;20075;-72
2022/06/06 05:17:35;;;;;;;5.95;3.00;;;;;;;19.58;79.59;100458.00;5078662;28;20036;-72
2022/06/06 05:20:24;;;;;;;4.55;3.38;;;;;;;19.61;78.16;100473.94;5058829;28;20032;-72
2022/06/06 05:23:12;;;;;;;4.63;2.45;;;;;;;19.48;78.74;100468.25;5073158;28;20140;-72
2022/06/06 05:25:43;;;;;;;3.28;2.55;;;;;;;19.43;79.02;100488.13;5091952;28;20228;-72
2022/06/06 05:28:35;;;;;;;4.25;2.58;;;;;;;19.35;79.04;100479.56;5075845;28;20529;-72
2022/06/06 05:31:15;;;;;;;3.95;2.40;;;;;;;19.24;78.77;100480.03;5068651;28;20082;-72
2022/06/06 05:34:02;;;;;;;5.47;2.88;;;;;;;19.17;79.18;100489.25;5077563;28;20469;-72
2022/06/06 05:36:43;;;;;;;4.40;2.35;;;;;;;19.21;78.87;100496.22;5076880;28;20044;-72
2022/06/06 05:39:21;;;;;;;4.70;3.17;;;;;;;19.16;79.55;100490.19;5079215;28;20132;-72
2022/06/06 05:42:16;;;;;;;4.28;2.00;;;;;;;19.16;78.77;100483.03;5079972;28;20028;-72
2022/06/06 05:45:19;;;;;;;5.07;2.40;;;;;;;19.11;79.04;100490.38;5080776;28;20036;-72
2022/06/06 05:48:06;;;;;;;3.42;2.20;;;;;;;19.04;78.52;100504.94;5076693;28;20051;-72
2022/06/06 05:50:46;;;;;;;5.32;2.50;;;;;;;18.96;78.69;100507.91;5075873;28;20068;-72
2022/06/06 05:53:31;;;;;;;2.90;2.13;;;;;;;18.94;78.53;100516.94;5079029;28;20110;-72
2022/06/06 05:56:29;;;;;;;6.22;2.10;;;;;;;19.06;77.46;100519.13;5080021;28;20044;-72
2022/06/06 05:59:16;;;;;;;3.80;2.25;;;;;;;19.18;76.93;100507.06;5081934;28;20032;-71
2022/06/06 06:01:59;;;;;;;4.53;2.35;;;;;;;19.23;75.80;100505.91;5081649;28;20128;-72
2022/06/06 06:04:49;;;;;;;3.28;2.20;;;;;;;19.37;75.58;100516.03;5079818;28;20043;-72
2022/06/06 06:07:37;;;;;;;3.40;2.17;;;;;;;19.62;74.14;100528.34;5079853;28;20048;-72
2022/06/06 06:10:14;;;;;;;4.40;2.15;;;;;;;19.95;72.99;100527.81;5069690;28;20037;-72
2022/06/06 06:12:55;;;;;;;3.83;2.03;;;;;;;20.25;71.01;100525.53;5075265;28;20417;-72
2022/06/06 06:15:27;;;;;;;3.85;1.88;;;;;;;20.52;68.98;100523.41;5079226;28;20086;-72
2022/06/06 06:17:54;;;;;;;3.10;1.85;;;;;;;20.79;68.77;100523.91;5076762;28;20032;-72
2022/06/06 06:20:24;;;;;;;3.05;1.67;;;;;;;20.96;66.61;100525.78;5080639;28;20506;-72
2022/06/06 06:22:56;;;;;;;2.90;1.73;;;;;;;21.06;65.43;100532.41;5081409;28;20032;-72
2022/06/06 06:25:23;;;;;;;;;;;;;;;20.98;64.73;100545.31;5075287;28;20121;-71
2022/06/06 06:27:49;;;;;;;2.88;1.48;;;;;;;21.02;65.74;100526.31;5077894;28;20281;-72
2022/06/06 06:30:15;;;;;;;2.80;1.63;;;;;;;20.91;64.87;100523.31;5080892;28;20048;-72
2022/06/06 06:32:59;;;;;;;2.33;1.40;;;;;;;20.87;65.09;100528.91;5078870;28;20037;-72
2022/06/06 06:35:38;;;;;;;4.00;1.70;;;;;;;20.96;65.14;100542.75;5077739;28;20048;-72
2022/06/06 06:38:19;;;;;;;3.38;1.50;;;;;;;20.99;66.31;100539.03;5079468;28;20123;-72
2022/06/06 06:40:54;;;;;;;3.80;1.73;;;;;;;21.00;65.84;100541.63;5082399;28;20390;-72
2022/06/06 06:43:33;;;;;;;3.38;1.70;;;;;;;21.20;65.77;100542.47;5080657;28;20032;-72
2022/06/06 06:46:01;;;;;;;3.45;2.22;;;;;;;21.25;65.26;100551.16;5082303;28;20048;-72
2022/06/06 06:48:38;;;;;;;3.00;1.92;;;;;;;21.25;64.53;100548.47;5084609;28;20043;-72
2022/06/06 06:51:21;;;;;;;3.83;1.92;;;;;;;21.18;64.79;100541.66;5084470;28;20083;-72
2022/06/06 06:53:49;;;;;;;3.03;1.65;;;;;;;20.98;66.25;100538.13;5082380;28;20064;-72
2022/06/06 06:56:40;;;;;;;4.78;1.70;;;;;;;20.98;66.01;100535.47;5082275;28;20089;-72
2022/06/06 06:59:17;;;;;;;4.35;2.00;;;;;;;20.92;66.50;100535.78;5084149;28;20040;-72
2022/06/06 07:08:34;;;;;;;3.67;2.10;;;;;;;20.89;67.08;100535.94;5083046;28;20028;-72
2022/06/06 07:11:26;;;;;;;4.20;2.25;;;;;;;20.82;67.77;100538.97;5078322;28;20471;-72
2022/06/06 07:14:06;;;;;;;3.63;1.70;;;;;;;20.99;68.18;100531.84;5079712;28;20078;-72
2022/06/06 07:16:37;;;;;;;3.38;1.80;;;;;;;21.07;67.12;100539.53;5081673;28;20483;-72
2022/06/06 07:19:17;;;;;;;3.33;2.20;;;;;;;21.14;67.73;100546.34;5083774;28;20032;-72
2022/06/06 07:21:45;;;;;;;4.63;2.78;;;;;;;21.27;67.12;100530.44;5084390;28;20556;-72
2022/06/06 07:24:15;;;;;;;4.68;1.98;;;;;;;21.52;66.49;100537.31;5082369;28;20379;-71
2022/06/06 07:26:43;;;;;;;2.90;2.05;;;;;;;21.76;64.79;100533.34;5081769;28;20040;-71
2022/06/06 07:29:11;;;;;;;4.68;2.30;;;;;;;22.15;64.53;100536.66;5080345;28;20043;-71
2022/06/06 07:32:07;;;;;;;3.65;2.25;;;;;;;22.57;62.33;100533.47;5081330;28;20493;-71
2022/06/06 07:35:09;;;;;;;4.50;1.90;;;;;;;22.97;61.10;100520.44;5079075;28;20032;-71
2022/06/06 07:37:56;;;;;;;2.95;1.95;;;;;;;23.28;60.27;100524.91;5062381;28;20088;-71
2022/06/06 07:40:37;;;;;;;4.43;2.10;;;;;;;23.29;61.05;100523.09;5081864;28;20149;-71
2022/06/06 07:43:14;;;;;;;2.53;1.40;;;;;;;23.04;58.75;100524.53;5078915;28;20039;-72
2022/06/06 07:45:53;;;;;;;3.33;1.95;;;;;;;22.83;58.45;100525.75;5081244;28;20483;-71
2022/06/06 07:48:18;;;;;;;2.45;1.70;;;;;;;22.63;58.17;100525.03;5080579;28;20056;-72
2022/06/06 07:50:55;;;;;;;2.72;1.48;;;;;;;22.67;57.53;100520.38;5080567;28;20526;-71
2022/06/06 07:53:53;;;;;;;3.35;1.70;;;;;;;22.98;57.09;100530.28;5078473;28;20040;-71
2022/06/06 07:56:45;;;;;;;2.72;1.38;;;;;;;23.27;55.31;100533.09;5080848;28;20518;-71
2022/06/06 07:59:28;;;;;;;3.42;1.90;;;;;;;23.25;54.69;100516.16;5081040;28;20402;-71
2022/06/06 08:02:10;;;;;;;2.85;1.48;;;;;;;23.39;54.64;100513.50;5079228;28;20090;-71
2022/06/06 08:04:54;;;;;;;2.95;1.42;;;;;;;23.64;54.91;100512.91;5049413;28;20125;-71
2022/06/06 08:07:39;;;;;;;3.17;1.50;;;;;;;23.51;54.68;100528.94;5080550;28;20589;-71
2022/06/06 08:10:26;;;;;;;3.33;1.52;;;;;;;23.30;52.20;100514.94;5079642;28;20053;-71
2022/06/06 08:13:16;;;;;;;2.78;1.30;;;;;;;23.35;52.61;100512.81;5081092;28;20043;-71
2022/06/06 08:16:03;;;;;;;3.33;1.42;;;;;;;23.31;52.68;100505.00;5082303;28;20042;-71
2022/06/06 08:18:38;;;;;;;2.08;1.35;;;;;;;23.39;53.45;100508.97;5076822;28;20036;-71
2022/06/06 08:21:25;;;;;;;2.92;1.48;;;;;;;23.28;51.70;100507.91;5079998;28;20037;-71
2022/06/06 08:23:55;;;;;;;3.47;1.20;;;;;;;23.43;52.10;100509.69;5076566;28;20508;-71
2022/06/06 08:26:24;;;;;;;3.03;1.50;;;;;;;23.79;52.22;100500.34;5082404;28;20028;-71
2022/06/06 08:28:50;;;;;;;2.78;1.35;;;;;;;23.91;51.81;100499.56;5079203;28;20090;-72
2022/06/06 08:31:15;;;;;;;2.75;1.40;;;;;;;24.27;51.14;100500.91;5082576;28;20028;-71
2022/06/06 08:33:40;;;;;;;2.72;1.17;;;;;;;24.37;50.27;100501.22;5080070;28;20050;-71
2022/06/06 08:36:09;;;;;;;1.80;1.30;;;;;;;24.42;50.39;100493.69;5081195;28;20115;-71
2022/06/06 08:38:48;;;;;;;2.30;1.38;;;;;;;24.32;50.46;100498.81;5081551;28;20044;-71
2022/06/06 08:41:32;;;;;;;2.35;1.35;;;;;;;24.24;50.87;100504.69;5073365;28;20024;-71
2022/06/06 08:44:21;;;;;;;2.60;1.30;;;;;;;24.27;49.88;100501.78;5080001;28;20109;-71
2022/06/06 08:47:06;;;;;;;2.50;1.20;;;;;;;24.30;49.69;100491.78;5081999;28;20036;-71
2022/06/06 08:53:38;;;;;;;2.95;1.50;;;;;;;24.78;49.61;100495.81;5081993;28;20040;-71
2022/06/06 08:56:47;;;;;;;3.63;1.52;;;;;;;25.01;47.60;100483.50;5079934;28;20090;-71
2022/06/06 08:59:49;;;;;;;2.45;1.38;;;;;;;24.66;48.07;100496.66;5076270;28;20037;-71
2022/06/06 09:02:52;;;;;;;2.15;1.20;;;;;;;24.47;48.57;100497.84;5080472;28;20050;-72
2022/06/06 09:05:42;;;;;;;2.63;1.35;;;;;;;24.33;49.21;100497.81;5059110;28;20059;-71
2022/06/06 09:08:45;;;;;;;3.05;1.25;;;;;;;24.43;48.96;100490.88;5076990;28;20071;-71
2022/06/06 09:11:33;;;;;;;2.58;1.10;;;;;;;24.89;47.45;100495.13;5080222;28;20540;-71
2022/06/06 09:14:20;;;;;;;2.25;1.20;;;;;;;24.89;47.27;100493.31;5080567;28;20562;-71
2022/06/06 09:17:13;;;;;;;2.22;1.27;;;;;;;24.58;47.78;100504.38;5079786;28;20044;-70
2022/06/06 09:19:47;;;;;;;2.42;1.50;;;;;;;24.08;48.20;100489.56;5080600;28;20075;-71
2022/06/06 09:22:53;;;;;;;1.98;1.08;;;;;;;24.08;48.76;100494.94;5075856;28;20032;-71
2022/06/06 09:25:58;;;;;;;2.33;1.40;;;;;;;24.36;47.78;100488.66;5059845;28;20044;-71
2022/06/06 09:29:04;;;;;;;3.65;1.40;;;;;;;24.65;46.92;100490.41;5051571;28;20041;-71
2022/06/06 09:31:48;;;;;;;1.50;1.00;;;;;;;25.01;47.21;100474.53;5081519;28;20031;-70
2022/06/06 09:34:51;;;;;;;1.75;1.10;;;;;;;25.16;46.10;100487.03;5080538;28;20043;-71
2022/06/06 09:37:50;;;;;;;3.45;1.60;;;;;;;25.49;45.53;100481.19;5076372;28;20487;-71
2022/06/06 09:40:22;;;;;;;2.13;1.33;;;;;;;25.52;45.36;100480.97;5073542;28;20131;-71
2022/06/06 09:43:06;;;;;;;2.42;1.52;;;;;;;25.54;45.28;100480.84;5078257;28;20094;-71
2022/06/06 09:45:58;;;;;;;3.33;1.33;;;;;;;25.72;45.30;100475.97;5080075;28;20043;-71
2022/06/06 09:48:55;;;;;;;1.83;1.10;;;;;;;25.89;44.46;100481.09;5081513;28;20386;-72
2022/06/06 09:51:58;;;;;;;3.72;1.45;;;;;;;26.26;42.71;100474.91;5075103;28;20082;-71
2022/06/06 10:01:18;;;;;;;2.17;1.35;;;;;;;26.84;40.83;100481.44;5077559;28;20128;-71
2022/06/06 10:04:12;;;;;;;2.22;1.08;;;;;;;26.79;41.05;100478.22;5077725;28;20048;-72
2022/06/06 10:06:46;;;;;;;2.70;1.67;;;;;;;26.69;41.48;100486.16;5061214;28;20076;-72
2022/06/06 10:09:38;;;;;;;2.33;1.30;;;;;;;26.49;42.06;100486.72;5075402;28;20506;-71
2022/06/06 10:12:09;;;;;;;;;;;;;;;26.45;40.27;100488.81;5079669;28;20044;-71
2022/06/06 10:15:12;;;;;;;2.77;1.33;;;;;;;26.91;40.39;100488.13;5084243;28;19911;-71
2022/06/06 10:18:15;;;;;;;2.45;1.20;;;;;;;27.02;40.40;100496.31;5085803;28;20044;-71
2022/06/06 10:21:08;;;;;;;4.53;1.30;;;;;;;27.27;39.35;100483.63;5081956;28;20065;-72
2022/06/06 10:23:51;;;;;;;3.15;1.50;;;;;;;27.36;39.05;100488.34;5083057;28;20033;-72
2022/06/06 10:26:39;;;;;;;2.38;1.50;;;;;;;26.92;39.04;100497.97;5081258;28;20410;-71
2022/06/06 10:29:23;;;;;;;3.95;1.25;;;;;;;26.66;39.93;100495.38;5080396;28;20036;-71
2022/06/06 10:32:03;;;;;;;3.55;1.65;;;;;;;27.14;39.64;100509.88;5078540;28;20408;-71
2022/06/06 10:35:02;;;;;;;3.13;1.27;;;;;;;27.35;39.94;100493.88;5083044;28;20043;-72
2022/06/06 10:37:57;;;;;;;4.93;1.20;;;;;;;27.33;40.27;100496.72;5082775;28;20032;-71
2022/06/06 10:40:56;;;;;;;2.53;1.40;;;;;;;27.45;39.03;100494.88;5077224;28;20028;-71
2022/06/06 10:43:39;;;;;;;2.45;1.20;;;;;;;27.17;38.50;100490.69;5081280;28;20044;-72
2022/06/06 10:46:42;;;;;;;2.50;1.20;;;;;;;27.21;37.95;100494.94;5081944;28;20039;-71
2022/06/06 10:49:25;;;;;;;2.47;1.20;;;;;;;27.22;38.20;100491.22;5085037;28;20043;-72
2022/06/06 10:52:17;;;;;;;4.30;1.13;;;;;;;27.67;37.89;100491.38;5084210;28;20032;-72
2022/06/06 10:55:16;;;;;;;2.08;1.30;;;;;;;27.65;37.72;100482.50;5084298;28;20032;-71
2022/06/06 10:58:13;;;;;;;1.90;1.17;;;;;;;27.48;39.14;100489.22;5074329;28;20048;-72
2022/06/06 11:00:46;;;;;;;2.50;1.20;;;;;;;27.66;38.86;100484.22;5081062;28;20044;-71
2022/06/06 11:03:35;;;;;;;2.80;1.58;;;;;;;27.73;37.24;100477.34;5081652;28;20120;-71
2022/06/06 11:06:36;;;;;;;2.05;1.13;;;;;;;27.43;38.53;100467.94;5084041;28;20089;-71
2022/06/06 11:09:08;;;;;;;;;;;;;;;27.14;38.37;100474.66;5080027;28;20040;-71
2022/06/06 11:12:13;;;;;;;5.05;1.60;;;;;;;27.66;37.28;100467.94;5082272;28;20397;-71
2022/06/06 11:14:40;;;;;;;2.60;1.50;;;;;;;27.69;37.78;100473.13;5082196;28;20032;-72
2022/06/06 11:17:33;;;;;;;2.00;1.33;;;;;;;27.98;37.69;100470.84;5083590;28;20039;-72
2022/06/06 11:20:20;;;;;;;2.70;1.50;;;;;;;27.96;37.56;100479.13;5081371;28;20040;-71
2022/06/06 11:23:10;;;;;;;2.10;1.30;;;;;;;28.19;36.16;100462.81;5079312;28;20039;-72
2022/06/06 11:26:03;;;;;;;3.28;1.40;;;;;;;28.39;37.08;100463.91;5081153;28;20064;-72
2022/06/06 11:28:48;;;;;;;2.15;1.25;;;;;;;28.57;36.04;100458.88;5078889;28;20086;-72
2022/06/06 11:31:51;;;;;;;4.68;1.50;;;;;;;29.10;35.66;100456.22;5080120;28;20147;-72
2022/06/06 11:34:50;;;;;;;2.03;1.08;;;;;;;28.86;34.56;100463.72;5084177;28;20123;-71
2022/06/06 11:37:37;;;;;;;3.45;1.33;;;;;;;28.41;35.15;100457.38;5079065;28;20071;-72
2022/06/06 11:40:33;;;;;;;2.35;1.33;;;;;;;28.10;37.45;100467.16;5060456;28;20036;-71
2022/06/06 11:43:18;;;;;;;2.03;1.30;;;;;;;27.77;37.21;100459.81;5079377;28;20102;-72
2022/06/06 11:46:13;;;;;;;3.42;1.50;;;;;;;28.03;37.02;100454.19;5079264;28;20068;-71
2022/06/06 11:48:59;;;;;;;2.55;1.35;;;;;;;27.85;35.91;100460.13;5061207;28;20128;-72
2022/06/06 11:51:40;;;;;;;1.52;1.05;;;;;;;28.09;35.65;100448.31;5072290;28;20055;-72
2022/06/06 11:54:45;;;;;;;5.05;1.35;;;;;;;28.56;34.38;100446.28;5077061;28;20479;-71
2022/06/06 11:57:48;;;;;;;2.22;1.20;;;;;;;29.08;34.16;100436.47;5080775;28;20399;-71
2022/06/06 12:00:23;;;;;;;2.75;1.30;;;;;;;29.53;34.31;100435.34;5074329;28;20039;-72
2022/06/06 12:03:32;;;;;;;2.42;1.70;;;;;;;29.81;33.03;100437.41;5081360;28;20513;-72
2022/06/06 12:06:23;;;;;;;2.92;1.25;;;;;;;30.01;33.35;100435.63;5077353;28;20115;-72
2022/06/06 12:09:04;;;;;;;2.40;1.30;;;;;;;30.02;33.16;100428.31;5078470;28;20049;-71
2022/06/06 12:12:07;;;;;;;1.83;1.20;;;;;;;29.93;32.82;100424.56;5076297;28;20036;-72
2022/06/06 12:14:56;;;;;;;2.53;1.20;;;;;;;29.96;33.59;100427.03;5080422;28;20455;-72
2022/06/06 12:18:02;;;;;;;3.20;1.40;;;;;;;29.82;33.73;100424.69;5080225;28;20490;-72
2022/06/06 12:20:43;;;;;;;4.45;1.58;;;;;;;29.90;32.60;100414.84;5077169;28;20088;-72
2022/06/06 12:23:15;;;;;;;2.88;1.55;;;;;;;29.99;32.48;100409.56;5080030;28;20037;-72
2022/06/06 12:25:54;;;;;;;2.67;1.30;;;;;;;30.46;32.12;100404.41;5077920;28;20652;-72
2022/06/06 12:28:43;;;;;;;4.30;1.40;;;;;;;30.65;30.80;100411.75;5079907;28;20043;-72
2022/06/06 12:31:23;;;;;;;3.72;1.20;;;;;;;30.61;31.02;100403.00;5081928;28;20036;-72
2022/06/06 12:34:04;;;;;;;2.55;1.27;;;;;;;30.37;31.79;100403.41;5079793;28;20555;-72
2022/06/06 12:36:51;;;;;;;2.42;1.35;;;;;;;31.29;30.14;100397.56;5059571;28;20029;-72
2022/06/06 12:39:32;;;;;;;2.90;1.88;;;;;;;32.48;28.18;100385.00;5075362;28;20067;-71
2022/06/06 12:42:13;;;;;;;2.90;1.00;;;;;;;32.21;28.56;100388.63;5082344;28;20036;-72
2022/06/06 12:45:15;;;;;;;2.72;1.40;;;;;;;32.01;27.92;100389.75;5079592;28;20115;-72
2022/06/06 12:47:57;;;;;;;3.28;1.42;;;;;;;32.70;28.13;100388.31;5082877;28;20039;-72
2022/06/06 12:50:57;;;;;;;1.50;1.08;;;;;;;32.88;27.81;100382.81;5082439;28;20127;-71